Garyville, LA (70051)

12:50 AM CST en Febrero 25, 2017 (GMT -0600)
Reserve | | Change Station

Alt 30 ft 30.06 °N, 90.55 °W | Updated 6 minutes ago

Muy nublado
Muy nublado
64.0 ° F
Sensación térmica 64.0 ° F
N
0.0
Viento Variable Viento desde SSO

Hoy
Alta -- | Baja -- ° F
--% Posibilidad de precipitaciones
Ayer
Alta -- | Baja -- ° F
Precip. -- pul
Presión 29.86 pul
Visibilidad 10.0 Millas
Nubes Muy nublado 2200 ft
Nublado 4900 ft
Punto de rocío 62 ° F
Humedad 94%
Precipitaciones 0.00 pul
Espesor de la nieve No disponible.
6:32 AM 5:58 PM
Creciente menguante, 2% visible
METAR KL38 250635Z AUTO 00000KT 10SM BKN022 OVC049 19/18 A2986 RMK AO2 T01850176
Presión 29.86 pul
Visibilidad 10.0 Millas
Nubes Muy nublado 2200 ft
Nublado 4900 ft
Punto de rocío 62 ° F
Humedad 94%
Precipitaciones 0.00 pul
Espesor de la nieve No disponible.
6:32 AM 5:58 PM
Creciente menguante, 2% visible
METAR KL38 250635Z AUTO 00000KT 10SM BKN022 OVC049 19/18 A2986 RMK AO2 T01850176

Get Your Daily Forecast Email!

Thanks for signing up!

Be on the lookout for a verification email in your inbox.

You'll start receiving the daily forecast at 8 AM.

×

10-Day Weather Forecast

Almanac

Astronomía

Feb. 25, 2017 Salida Puesta
Hora real
Crepúsculo civil
Crepúsculo náutico
Crepúsculo astronómico
Luna
Horas de luz
Horas de luz
Tomorrow will be .
, % of the Moon is Illuminated

Extremos de hoy

Máximos del estado Bajos del estado

Community

WunderPhotos

Upload Photos

1,962,540 ¡fotos cargadas!

WunderBlog® & News

Nearby

Calidad del aire

  Calidad del aire Índice AQ Contaminante
Not available.

Grosos de nieve

Estación Profundido Altura

Actividad de terremotos

Ciudad Distance Mag. Tiempo y dato
Magnitud mínima muestra es 2,5.

Temperaturas de aguas costeras

Lugar Temperatura

Stations

Estaciones meteorológicas cercanas

Ubicación de la estación Temp. Vientos helados Punto de rocío Humedad Viento Precip. Alt Actualizado Tipo
                   

Watches & Warnings

There are currently no watches in effect.